Time;durP1;ratioP1;P1;durP2;ratioP2;P2;SDS_P1;SDS_P2;PMS_P1;PMS_P2;Temp;Humidity;BMP_temperature;BMP_pressure;BME280_temperature;BME280_humidity;BME280_pressure;Samples;Min_cycle;Max_cycle;Signal;HPM_P1;HPM_P2
2022/10/05 00:00:06;;;;;;;6.93;5.70;;;;;;;;;;6246434;23;20020;-74
2022/10/05 00:02:33;;;;;;;9.73;5.20;;;;;;;;;;6246766;23;20016;-73
2022/10/05 00:05:01;;;;;;;8.27;5.05;;;;;;;;;;6246426;23;20016;-74
2022/10/05 00:07:29;;;;;;;13.43;8.23;;;;;;;;;;6246510;23;20047;-74
2022/10/05 00:09:59;;;;;;;10.93;7.97;;;;;;;;;;6246423;23;20024;-73
2022/10/05 00:12:28;;;;;;;11.40;6.80;;;;;;;;;;6246775;23;20030;-74
2022/10/05 00:14:59;;;;;;;9.60;6.00;;;;;;;;;;6246216;23;20081;-73
2022/10/05 00:17:28;;;;;;;9.13;5.15;;;;;;;;;;6219460;23;20338;-74
2022/10/05 00:19:55;;;;;;;11.98;6.60;;;;;;;;;;6246285;23;20027;-73
2022/10/05 00:22:32;;;;;;;13.20;8.27;;;;;;;;;;6246243;23;20028;-74
2022/10/05 00:25:02;;;;;;;10.10;6.70;;;;;;;;;;6219541;23;20436;-74
2022/10/05 00:27:36;;;;;;;9.10;6.75;;;;;;;;;;6246211;23;20079;-74
2022/10/05 00:30:17;;;;;;;10.48;7.38;;;;;;;;;;6246165;23;20043;-74
2022/10/05 00:32:45;;;;;;;8.70;6.40;;;;;;;;;;6246184;23;20016;-74
2022/10/05 00:35:13;;;;;;;12.38;6.75;;;;;;;;;;6219267;23;20516;-75
2022/10/05 00:37:41;;;;;;;8.40;6.15;;;;;;;;;;6246182;23;20036;-73
2022/10/05 00:40:25;;;;;;;7.68;5.55;;;;;;;;;;6219034;23;20051;-74
2022/10/05 00:43:11;;;;;;;7.85;6.43;;;;;;;;;;6245994;23;20047;-73
2022/10/05 00:45:51;;;;;;;7.10;5.60;;;;;;;;;;6245913;23;20334;-74
2022/10/05 00:48:37;;;;;;;8.60;6.68;;;;;;;;;;6219151;23;20020;-74
2022/10/05 00:51:11;;;;;;;8.85;5.50;;;;;;;;;;6245975;23;20016;-74
2022/10/05 00:53:38;;;;;;;10.43;6.15;;;;;;;;;;6245820;23;20020;-74
2022/10/05 00:56:06;;;;;;;11.55;5.95;;;;;;;;;;6218791;23;20347;-74
2022/10/05 00:58:50;;;;;;;8.43;6.13;;;;;;;;;;6246057;23;20028;-73
2022/10/05 01:01:25;;;;;;;11.02;6.18;;;;;;;;;;6245662;23;20070;-74
2022/10/05 01:03:55;;;;;;;8.57;5.85;;;;;;;;;;6218997;23;20027;-74
2022/10/05 01:06:42;;;;;;;10.55;5.65;;;;;;;;;;6218992;23;20016;-73
2022/10/05 01:09:30;;;;;;;7.93;6.25;;;;;;;;;;6218861;23;20020;-73
2022/10/05 01:12:00;;;;;;;10.38;6.28;;;;;;;;;;6218782;23;20115;-74
2022/10/05 01:14:39;;;;;;;8.25;6.00;;;;;;;;;;6245602;23;20091;-74
2022/10/05 01:17:15;;;;;;;7.45;6.20;;;;;;;;;;6218871;23;20016;-74
2022/10/05 01:20:01;;;;;;;8.38;5.85;;;;;;;;;;6245720;23;20016;-73
2022/10/05 01:22:39;;;;;;;9.40;6.13;;;;;;;;;;6218869;23;20124;-73
2022/10/05 01:25:10;;;;;;;9.60;6.10;;;;;;;;;;6245655;23;20333;-73
2022/10/05 01:27:37;;;;;;;8.73;6.57;;;;;;;;;;6218906;23;20107;-73
2022/10/05 01:30:13;;;;;;;9.48;6.47;;;;;;;;;;6218702;23;20070;-73
2022/10/05 01:32:40;;;;;;;12.10;7.22;;;;;;;;;;6245957;23;20036;-73
2022/10/05 01:35:14;;;;;;;8.45;6.18;;;;;;;;;;6245477;23;20016;-73
2022/10/05 01:38:01;;;;;;;9.70;7.63;;;;;;;;;;6218725;23;20100;-73
2022/10/05 01:40:38;;;;;;;10.10;7.30;;;;;;;;;;6159157;23;20016;-73
2022/10/05 01:43:24;;;;;;;12.32;7.20;;;;;;;;;;6244039;23;20016;-73
2022/10/05 01:45:52;;;;;;;8.82;6.70;;;;;;;;;;6218478;23;20024;-73
2022/10/05 01:48:23;;;;;;;11.07;7.13;;;;;;;;;;6218700;23;20020;-73
2022/10/05 01:50:57;;;;;;;11.18;6.78;;;;;;;;;;6245517;23;20016;-73
2022/10/05 01:53:43;;;;;;;10.30;6.97;;;;;;;;;;6218581;23;20020;-73
2022/10/05 01:56:18;;;;;;;9.45;6.78;;;;;;;;;;6218498;23;20024;-73
2022/10/05 01:58:58;;;;;;;8.32;6.75;;;;;;;;;;6218779;23;20024;-73
2022/10/05 02:01:28;;;;;;;9.90;6.57;;;;;;;;;;6245354;23;20024;-73
2022/10/05 02:04:08;;;;;;;9.85;7.15;;;;;;;;;;6218460;23;20074;-73
2022/10/05 02:06:41;;;;;;;8.73;6.93;;;;;;;;;;6193501;23;20016;-73
2022/10/05 02:09:13;;;;;;;10.52;6.20;;;;;;;;;;6218297;23;20024;-73
2022/10/05 02:11:43;;;;;;;9.55;6.80;;;;;;;;;;6218180;23;20020;-73
2022/10/05 02:14:12;;;;;;;10.07;6.30;;;;;;;;;;6245181;23;20020;-73
2022/10/05 02:16:42;;;;;;;10.73;6.30;;;;;;;;;;6218470;23;20055;-73
2022/10/05 02:19:13;;;;;;;9.95;6.65;;;;;;;;;;6218563;23;20023;-73
2022/10/05 02:21:44;;;;;;;9.35;6.57;;;;;;;;;;6218423;23;20052;-73
2022/10/05 02:24:20;;;;;;;11.18;6.45;;;;;;;;;;6218359;23;20024;-73
2022/10/05 02:26:49;;;;;;;12.50;7.18;;;;;;;;;;6218374;23;20469;-73
2022/10/05 02:29:19;;;;;;;10.55;6.80;;;;;;;;;;6243379;23;20020;-73
2022/10/05 02:31:50;;;;;;;10.40;6.68;;;;;;;;;;6218406;23;20048;-73
2022/10/05 02:34:21;;;;;;;11.23;6.68;;;;;;;;;;6244877;23;20371;-73
2022/10/05 02:37:11;;;;;;;13.43;7.38;;;;;;;;;;6218369;23;20024;-73
2022/10/05 02:39:38;;;;;;;9.57;6.95;;;;;;;;;;6218251;23;20016;-73
2022/10/05 02:42:23;;;;;;;10.52;8.07;;;;;;;;;;6193706;23;20031;-73
2022/10/05 02:45:00;;;;;;;10.70;7.22;;;;;;;;;;6218219;23;20023;-73
2022/10/05 02:47:32;;;;;;;9.25;6.82;;;;;;;;;;6218169;23;20020;-73
2022/10/05 02:50:06;;;;;;;9.85;7.03;;;;;;;;;;6218223;23;20024;-73
2022/10/05 02:52:53;;;;;;;9.80;7.20;;;;;;;;;;6218318;23;20447;-73
2022/10/05 02:55:21;;;;;;;11.20;7.28;;;;;;;;;;6218182;23;20111;-73
2022/10/05 02:57:51;;;;;;;10.07;6.82;;;;;;;;;;6245179;23;20012;-73
2022/10/05 03:00:22;;;;;;;12.15;7.22;;;;;;;;;;6218290;23;20063;-73
2022/10/05 03:02:50;;;;;;;8.18;6.70;;;;;;;;;;6217947;23;20071;-73
2022/10/05 03:05:20;;;;;;;12.95;7.55;;;;;;;;;;6218254;23;20070;-73
2022/10/05 03:07:53;;;;;;;11.30;7.25;;;;;;;;;;6218259;23;20383;-72
2022/10/05 03:10:27;;;;;;;12.55;6.68;;;;;;;;;;6218258;23;20099;-73
2022/10/05 03:12:57;;;;;;;10.77;7.18;;;;;;;;;;6218251;23;20389;-73
2022/10/05 03:15:41;;;;;;;10.07;7.28;;;;;;;;;;6243122;23;20020;-73
2022/10/05 03:18:12;;;;;;;11.48;7.57;;;;;;;;;;6218206;23;20028;-73
2022/10/05 03:20:57;;;;;;;17.80;11.30;;;;;;;;;;6218054;23;20639;-73
2022/10/05 03:23:24;;;;;;;29.55;17.27;;;;;;;;;;6218097;23;20067;-73
2022/10/05 03:25:52;;;;;;;36.28;23.92;;;;;;;;;;6219282;23;20063;-73
2022/10/05 03:28:29;;;;;;;25.25;16.52;;;;;;;;;;6219915;23;20446;-72
2022/10/05 03:31:00;;;;;;;22.30;14.25;;;;;;;;;;6219615;23;20031;-73
2022/10/05 03:33:37;;;;;;;11.30;7.70;;;;;;;;;;6219623;23;20048;-73
2022/10/05 03:36:12;;;;;;;33.53;19.88;;;;;;;;;;6246943;23;20031;-73
2022/10/05 03:38:43;;;;;;;42.72;25.38;;;;;;;;;;6219866;23;20020;-73
2022/10/05 03:41:22;;;;;;;20.67;14.32;;;;;;;;;;6219748;23;20397;-73
2022/10/05 03:44:06;;;;;;;31.88;18.60;;;;;;;;;;6219839;23;20027;-73
2022/10/05 03:46:46;;;;;;;12.10;6.20;;;;;;;;;;6219677;23;20016;-72
2022/10/05 03:49:43;;;;;;;34.10;20.63;;;;;;;;;;6219502;23;20449;-72
2022/10/05 03:52:14;;;;;;;21.35;13.63;;;;;;;;;;6115668;23;20017;-72
2022/10/05 03:54:44;;;;;;;12.63;9.43;;;;;;;;;;6219577;23;20339;-72
2022/10/05 03:57:21;;;;;;;14.48;9.52;;;;;;;;;;6219517;23;20450;-72
2022/10/05 04:00:04;;;;;;;25.25;16.15;;;;;;;;;;6246476;23;20022;-72
2022/10/05 04:02:45;;;;;;;17.15;9.55;;;;;;;;;;6219672;23;20024;-72
2022/10/05 04:05:20;;;;;;;11.73;8.43;;;;;;;;;;6219499;23;20023;-72
2022/10/05 04:07:48;;;;;;;;;;;;;;;;;;6220114;23;20107;-72
2022/10/05 04:10:19;;;;;;;24.40;15.35;;;;;;;;;;6219834;23;19953;-72
2022/10/05 04:13:01;;;;;;;29.42;17.60;;;;;;;;;;6246356;23;20071;-72
2022/10/05 04:15:36;;;;;;;11.70;7.40;;;;;;;;;;6219197;23;20050;-72
2022/10/05 04:18:06;;;;;;;12.07;6.60;;;;;;;;;;6219321;23;20533;-72
2022/10/05 04:20:52;;;;;;;20.17;11.98;;;;;;;;;;6219451;23;20024;-73
2022/10/05 04:23:29;;;;;;;14.23;7.03;;;;;;;;;;6219109;23;20024;-72
2022/10/05 04:26:02;;;;;;;11.07;8.30;;;;;;;;;;6219184;23;20048;-72
2022/10/05 04:28:38;;;;;;;9.98;7.20;;;;;;;;;;6218538;23;20024;-72
2022/10/05 04:31:10;;;;;;;12.43;7.82;;;;;;;;;;6219446;23;20058;-72
2022/10/05 04:33:38;;;;;;;13.68;7.65;;;;;;;;;;6218164;23;20107;-72
2022/10/05 04:36:15;;;;;;;13.27;8.18;;;;;;;;;;6218943;23;20020;-72
2022/10/05 04:38:58;;;;;;;12.55;8.55;;;;;;;;;;6219115;23;20020;-72
2022/10/05 04:41:25;;;;;;;18.50;10.85;;;;;;;;;;6219060;23;20024;-72
2022/10/05 04:44:12;;;;;;;19.90;10.52;;;;;;;;;;6219188;23;20047;-73
2022/10/05 04:47:00;;;;;;;15.82;8.50;;;;;;;;;;6219276;23;20027;-72
2022/10/05 04:49:32;;;;;;;14.23;8.30;;;;;;;;;;6219208;23;20040;-72
2022/10/05 04:51:59;;;;;;;16.02;7.72;;;;;;;;;;6218778;23;20023;-72
2022/10/05 04:54:30;;;;;;;11.25;8.10;;;;;;;;;;6245739;23;20515;-72
2022/10/05 04:56:57;;;;;;;14.85;9.00;;;;;;;;;;6219158;23;20448;-73
2022/10/05 04:59:35;;;;;;;20.90;11.60;;;;;;;;;;6219372;23;20446;-73
2022/10/05 05:02:07;;;;;;;17.52;10.10;;;;;;;;;;6194394;23;20379;-72
2022/10/05 05:04:39;;;;;;;17.23;10.30;;;;;;;;;;6218894;23;20046;-72
2022/10/05 05:07:10;;;;;;;18.58;10.10;;;;;;;;;;6219098;23;20102;-72
2022/10/05 05:09:41;;;;;;;23.20;12.93;;;;;;;;;;6245948;23;20011;-72
2022/10/05 05:12:18;;;;;;;28.55;16.30;;;;;;;;;;6246141;23;20086;-72
2022/10/05 05:14:50;;;;;;;29.45;15.85;;;;;;;;;;6219007;23;20028;-73
2022/10/05 05:17:36;;;;;;;43.88;24.45;;;;;;;;;;6219076;23;20048;-73
2022/10/05 05:20:05;;;;;;;57.97;37.05;;;;;;;;;;6218897;23;20024;-73
2022/10/05 05:22:41;;;;;;;42.72;26.48;;;;;;;;;;6219337;23;20331;-73
2022/10/05 05:25:21;;;;;;;28.98;17.23;;;;;;;;;;6245626;23;20338;-72
2022/10/05 05:27:55;;;;;;;26.45;15.80;;;;;;;;;;6218976;23;20020;-73
2022/10/05 05:30:51;;;;;;;22.42;13.07;;;;;;;;;;6194534;23;20016;-72
2022/10/05 05:33:22;;;;;;;28.55;17.33;;;;;;;;;;6214625;23;20020;-72
2022/10/05 05:36:06;;;;;;;15.00;9.05;;;;;;;;;;6246021;23;20023;-73
2022/10/05 05:38:57;;;;;;;17.30;10.75;;;;;;;;;;6245811;23;20016;-73
2022/10/05 05:41:34;;;;;;;17.42;9.38;;;;;;;;;;6245574;23;20020;-72
2022/10/05 05:44:05;;;;;;;23.85;13.93;;;;;;;;;;6245561;23;20443;-72
2022/10/05 05:46:36;;;;;;;13.52;7.43;;;;;;;;;;6218442;23;20016;-72
2022/10/05 05:49:43;;;;;;;24.05;14.98;;;;;;;;;;6218644;23;20016;-73
2022/10/05 05:52:21;;;;;;;13.88;9.70;;;;;;;;;;6218852;23;20031;-72
2022/10/05 05:54:57;;;;;;;27.50;20.27;;;;;;;;;;6218600;23;20473;-73
2022/10/05 05:57:35;;;;;;;22.17;14.73;;;;;;;;;;6218595;23;20020;-73
2022/10/05 06:00:05;;;;;;;23.33;16.50;;;;;;;;;;6218860;23;20023;-72
2022/10/05 06:02:58;;;;;;;21.55;14.23;;;;;;;;;;6245894;23;20028;-72
2022/10/05 06:05:30;;;;;;;19.17;12.07;;;;;;;;;;6219160;23;20024;-73
2022/10/05 06:08:19;;;;;;;15.95;12.25;;;;;;;;;;6245878;23;20031;-73
2022/10/05 06:10:58;;;;;;;16.73;9.82;;;;;;;;;;6218565;23;20024;-73
2022/10/05 06:13:32;;;;;;;14.27;10.18;;;;;;;;;;6218499;23;20047;-73
2022/10/05 06:16:18;;;;;;;16.83;11.40;;;;;;;;;;6245070;23;20020;-74
2022/10/05 06:18:49;;;;;;;12.52;7.68;;;;;;;;;;6218593;23;20016;-74
2022/10/05 06:21:26;;;;;;;10.45;6.90;;;;;;;;;;6219095;23;20346;-75
2022/10/05 06:24:09;;;;;;;8.73;6.13;;;;;;;;;;6218667;23;20024;-74
2022/10/05 06:26:56;;;;;;;8.82;5.97;;;;;;;;;;6245391;23;20078;-74
2022/10/05 06:29:28;;;;;;;9.48;7.45;;;;;;;;;;6218657;23;20020;-74
2022/10/05 06:32:05;;;;;;;16.63;10.10;;;;;;;;;;6218132;23;20447;-74
2022/10/05 06:34:53;;;;;;;11.30;5.80;;;;;;;;;;6218583;23;20017;-73
2022/10/05 06:37:41;;;;;;;9.23;6.60;;;;;;;;;;6218058;23;20096;-72
2022/10/05 06:40:28;;;;;;;10.43;6.55;;;;;;;;;;6245041;23;20023;-73
2022/10/05 06:43:14;;;;;;;11.88;8.30;;;;;;;;;;6245085;23;20020;-72
2022/10/05 06:46:01;;;;;;;19.05;12.55;;;;;;;;;;6228857;23;20028;-72
2022/10/05 06:48:56;;;;;;;10.07;5.90;;;;;;;;;;6217760;23;20027;-73
2022/10/05 06:51:47;;;;;;;7.88;6.05;;;;;;;;;;6232130;23;20458;-72
2022/10/05 06:54:42;;;;;;;9.10;5.55;;;;;;;;;;6218093;23;20021;-74
2022/10/05 06:57:23;;;;;;;11.30;7.18;;;;;;;;;;6218111;23;20349;-74
2022/10/05 06:59:54;;;;;;;13.10;9.98;;;;;;;;;;6220591;23;20055;-71
2022/10/05 07:02:38;;;;;;;12.82;10.32;;;;;;;;;;6246797;23;20462;-75
2022/10/05 07:05:06;;;;;;;10.75;8.45;;;;;;;;;;6220114;23;20027;-72
2022/10/05 07:07:36;;;;;;;6.03;4.70;;;;;;;;;;6195193;23;20019;-72
2022/10/05 07:10:04;;;;;;;13.98;12.50;;;;;;;;;;6220328;23;20024;-73
2022/10/05 07:13:04;;;;;;;11.00;7.10;;;;;;;;;;6219607;23;20020;-73
2022/10/05 07:15:40;;;;;;;12.13;8.57;;;;;;;;;;6181219;23;20020;-72
2022/10/05 07:18:18;;;;;;;9.90;7.03;;;;;;;;;;6219840;23;20056;-74
2022/10/05 07:20:57;;;;;;;8.68;5.80;;;;;;;;;;6247002;23;20047;-74
2022/10/05 07:23:42;;;;;;;12.65;9.00;;;;;;;;;;6219574;23;20020;-75
2022/10/05 07:26:14;;;;;;;14.35;7.00;;;;;;;;;;6246500;23;20111;-75
2022/10/05 07:28:54;;;;;;;16.05;9.55;;;;;;;;;;6219543;23;20413;-75
2022/10/05 07:31:22;;;;;;;28.25;20.52;;;;;;;;;;6219495;23;20069;-75
2022/10/05 07:33:58;;;;;;;30.02;17.95;;;;;;;;;;6245711;23;20476;-73
2022/10/05 07:39:27;;;;;;;11.32;6.57;;;;;;;;;;6246168;23;20083;-74
2022/10/05 07:42:30;;;;;;;13.00;7.05;;;;;;;;;;6219727;23;20024;-74
2022/10/05 07:45:07;;;;;;;14.05;7.53;;;;;;;;;;6219638;23;20020;-76
2022/10/05 07:47:39;;;;;;;11.10;6.13;;;;;;;;;;6246632;23;20016;-74
2022/10/05 07:50:06;;;;;;;9.95;8.18;;;;;;;;;;6246563;23;20066;-75
2022/10/05 07:52:38;;;;;;;10.90;6.82;;;;;;;;;;6219571;23;20020;-75
2022/10/05 07:55:18;;;;;;;8.45;5.90;;;;;;;;;;6244952;23;20480;-74
2022/10/05 07:58:02;;;;;;;9.70;6.53;;;;;;;;;;6195187;23;20020;-74
2022/10/05 08:00:42;;;;;;;8.38;6.13;;;;;;;;;;6220037;23;20343;-74
2022/10/05 08:03:14;;;;;;;7.53;5.50;;;;;;;;;;6219938;23;20021;-74
2022/10/05 08:05:42;;;;;;;13.73;6.57;;;;;;;;;;6246586;23;20012;-74
2022/10/05 08:08:21;;;;;;;7.47;5.35;;;;;;;;;;6246662;23;20020;-75
2022/10/05 08:10:55;;;;;;;8.98;5.45;;;;;;;;;;6246288;23;20016;-74
2022/10/05 08:13:38;;;;;;;9.00;5.03;;;;;;;;;;6246984;23;20456;-74
2022/10/05 08:16:13;;;;;;;12.48;9.00;;;;;;;;;;6246989;23;20016;-74
2022/10/05 08:19:02;;;;;;;8.98;5.47;;;;;;;;;;6246732;23;20351;-75
2022/10/05 08:22:05;;;;;;;12.18;6.63;;;;;;;;;;6246541;23;20012;-76
2022/10/05 08:24:38;;;;;;;7.95;4.68;;;;;;;;;;6124021;23;20044;-76
2022/10/05 08:27:11;;;;;;;6.55;4.80;;;;;;;;;;6228286;23;20016;-75
2022/10/05 08:29:44;;;;;;;6.40;4.93;;;;;;;;;;6246402;23;20047;-74
2022/10/05 08:32:15;;;;;;;7.93;5.38;;;;;;;;;;6246320;23;20020;-74
2022/10/05 08:34:52;;;;;;;10.18;6.30;;;;;;;;;;6246182;23;20019;-74
2022/10/05 08:37:23;;;;;;;6.05;4.25;;;;;;;;;;6246241;23;20020;-74
2022/10/05 08:40:16;;;;;;;8.52;4.75;;;;;;;;;;6219315;23;20022;-74
2022/10/05 08:43:03;;;;;;;9.65;6.00;;;;;;;;;;6246186;23;20039;-74
2022/10/05 08:45:38;;;;;;;6.85;4.40;;;;;;;;;;6246301;23;20022;-74
2022/10/05 08:48:16;;;;;;;9.55;5.28;;;;;;;;;;6246305;23;20012;-76
2022/10/05 08:50:55;;;;;;;6.45;4.20;;;;;;;;;;6246224;23;20020;-74
2022/10/05 08:53:41;;;;;;;9.80;6.15;;;;;;;;;;6246172;23;20016;-73
2022/10/05 08:56:21;;;;;;;6.97;4.80;;;;;;;;;;6246174;23;20349;-73
2022/10/05 08:59:04;;;;;;;14.73;6.97;;;;;;;;;;6246439;23;20288;-75
2022/10/05 09:01:41;;;;;;;7.32;5.13;;;;;;;;;;6246290;23;20038;-73
2022/10/05 09:04:35;;;;;;;21.63;14.05;;;;;;;;;;6246013;23;20035;-76
2022/10/05 09:07:15;;;;;;;7.22;5.32;;;;;;;;;;6241441;23;20454;-73
2022/10/05 09:09:57;;;;;;;6.03;3.97;;;;;;;;;;6245918;23;20012;-75
2022/10/05 09:12:49;;;;;;;4.20;2.90;;;;;;;;;;6246035;23;20044;-75
2022/10/05 09:15:16;;;;;;;4.53;3.20;;;;;;;;;;6219231;23;20016;-75
2022/10/05 09:18:11;;;;;;;5.43;3.17;;;;;;;;;;6246037;23;20019;-74
2022/10/05 09:20:57;;;;;;;6.40;4.10;;;;;;;;;;6246105;23;20020;-74
2022/10/05 09:23:27;;;;;;;3.92;2.67;;;;;;;;;;6246092;23;20012;-75
2022/10/05 09:25:57;;;;;;;4.88;2.30;;;;;;;;;;6245716;23;20020;-75
2022/10/05 09:28:34;;;;;;;3.78;2.60;;;;;;;;;;6246013;23;20020;-75
2022/10/05 09:31:10;;;;;;;5.63;2.90;;;;;;;;;;6245888;23;20023;-74
2022/10/05 09:33:55;;;;;;;6.95;3.05;;;;;;;;;;6245961;23;20512;-74
2022/10/05 09:36:30;;;;;;;4.97;2.95;;;;;;;;;;6246305;23;20342;-76
2022/10/05 09:39:16;;;;;;;3.75;2.88;;;;;;;;;;6245943;23;20031;-75
2022/10/05 09:41:50;;;;;;;5.72;2.90;;;;;;;;;;6246003;23;20020;-75
2022/10/05 09:44:33;;;;;;;3.88;2.80;;;;;;;;;;6245714;23;20016;-75
2022/10/05 09:47:09;;;;;;;6.68;3.25;;;;;;;;;;6219068;23;20066;-75
2022/10/05 09:49:56;;;;;;;3.90;2.90;;;;;;;;;;6245914;23;20443;-74
2022/10/05 09:52:26;;;;;;;5.60;2.90;;;;;;;;;;6245643;23;20351;-75
2022/10/05 09:55:00;;;;;;;5.32;2.72;;;;;;;;;;6245585;23;20087;-75
2022/10/05 09:57:27;;;;;;;4.93;2.60;;;;;;;;;;6245441;23;20016;-75
2022/10/05 10:00:14;;;;;;;3.25;2.50;;;;;;;;;;6245577;23;20020;-75
2022/10/05 10:02:51;;;;;;;3.90;2.08;;;;;;;;;;6245541;23;20048;-75
2022/10/05 10:05:30;;;;;;;7.63;2.70;;;;;;;;;;6245652;23;20090;-75
2022/10/05 10:07:57;;;;;;;3.35;2.53;;;;;;;;;;6245553;23;20024;-75
2022/10/05 10:10:43;;;;;;;4.25;2.75;;;;;;;;;;6245380;23;20446;-75
2022/10/05 10:13:21;;;;;;;6.53;3.00;;;;;;;;;;6219164;23;20348;-75
2022/10/05 10:16:03;;;;;;;6.35;3.97;;;;;;;;;;6245421;23;20016;-77
2022/10/05 10:18:31;;;;;;;5.18;3.10;;;;;;;;;;6245781;23;20016;-75
2022/10/05 10:21:17;;;;;;;3.65;2.80;;;;;;;;;;6245424;23;20505;-76
2022/10/05 10:23:58;;;;;;;4.35;2.45;;;;;;;;;;6245539;23;20324;-76
2022/10/05 10:26:50;;;;;;;4.03;2.47;;;;;;;;;;6218742;23;20024;-75
2022/10/05 10:29:34;;;;;;;2.35;1.70;;;;;;;;;;6245577;23;20338;-75
2022/10/05 10:32:10;;;;;;;3.53;2.03;;;;;;;;;;6245285;23;20040;-75
2022/10/05 10:34:44;;;;;;;4.05;2.40;;;;;;;;;;6247313;23;20252;-74
2022/10/05 10:37:11;;;;;;;3.70;2.20;;;;;;;;;;6247523;23;20017;-76
2022/10/05 10:39:57;;;;;;;3.97;2.03;;;;;;;;;;6247904;23;20434;-75
2022/10/05 10:42:27;;;;;;;4.78;2.40;;;;;;;;;;6220685;23;20024;-75
2022/10/05 10:44:59;;;;;;;5.95;2.40;;;;;;;;;;6220748;23;20107;-75
2022/10/05 10:47:26;;;;;;;3.80;2.10;;;;;;;;;;6247410;23;20012;-75
2022/10/05 10:50:04;;;;;;;3.53;2.10;;;;;;;;;;6247896;23;20016;-75
2022/10/05 10:52:40;;;;;;;2.70;1.80;;;;;;;;;;6247482;23;20051;-75
2022/10/05 10:55:15;;;;;;;3.25;1.98;;;;;;;;;;6247907;23;20326;-75
2022/10/05 10:58:15;;;;;;;3.25;2.03;;;;;;;;;;6247406;23;20016;-75
2022/10/05 11:01:01;;;;;;;2.15;1.67;;;;;;;;;;6182077;23;20020;-75
2022/10/05 11:03:29;;;;;;;5.07;2.58;;;;;;;;;;6247292;23;20020;-75
2022/10/05 11:06:07;;;;;;;4.00;2.60;;;;;;;;;;6247717;23;20373;-75
2022/10/05 11:08:53;;;;;;;3.97;2.30;;;;;;;;;;6247450;23;20020;-75
2022/10/05 11:11:39;;;;;;;6.38;3.03;;;;;;;;;;6247460;23;20016;-75
2022/10/05 11:14:25;;;;;;;4.22;2.50;;;;;;;;;;6247205;23;20087;-75
2022/10/05 11:16:53;;;;;;;2.35;1.90;;;;;;;;;;6247200;23;20111;-75
2022/10/05 11:19:39;;;;;;;2.88;2.03;;;;;;;;;;6247294;23;20038;-76
2022/10/05 11:22:46;;;;;;;2.13;1.92;;;;;;;;;;6247115;23;20043;-75
2022/10/05 11:25:26;;;;;;;2.20;1.80;;;;;;;;;;6247012;23;20047;-75
2022/10/05 11:27:54;;;;;;;7.22;4.38;;;;;;;;;;6246862;23;20020;-75
2022/10/05 11:30:42;;;;;;;3.60;2.40;;;;;;;;;;6220020;23;20020;-75
2022/10/05 11:33:18;;;;;;;3.40;1.90;;;;;;;;;;6246804;23;20016;-76
2022/10/05 11:35:51;;;;;;;2.28;2.00;;;;;;;;;;6246973;23;20012;-75
2022/10/05 11:38:37;;;;;;;3.28;1.77;;;;;;;;;;6219912;23;20099;-75
2022/10/05 11:41:23;;;;;;;2.17;1.60;;;;;;;;;;6246766;23;20459;-75
2022/10/05 11:44:00;;;;;;;5.53;2.35;;;;;;;;;;6219755;23;20095;-76
2022/10/05 11:46:40;;;;;;;1.85;1.50;;;;;;;;;;6246290;23;20051;-75
2022/10/05 11:49:16;;;;;;;2.58;2.20;;;;;;;;;;6246855;23;20477;-76
2022/10/05 11:52:05;;;;;;;4.10;2.92;;;;;;;;;;6219895;23;20022;-75
2022/10/05 11:54:39;;;;;;;12.52;7.88;;;;;;;;;;6246521;23;20012;-75
2022/10/05 11:57:37;;;;;;;4.45;2.90;;;;;;;;;;6246572;23;20016;-75
2022/10/05 12:00:11;;;;;;;2.65;1.80;;;;;;;;;;6246890;23;20030;-75
2022/10/05 12:02:52;;;;;;;6.23;3.70;;;;;;;;;;6246238;23;20022;-75
2022/10/05 12:05:26;;;;;;;5.03;2.97;;;;;;;;;;6246236;23;20024;-74
2022/10/05 12:08:17;;;;;;;3.22;2.40;;;;;;;;;;6246050;23;20019;-74
2022/10/05 12:11:08;;;;;;;2.63;2.00;;;;;;;;;;6231638;23;20019;-75
2022/10/05 12:13:51;;;;;;;4.57;1.80;;;;;;;;;;6231525;23;20048;-75
2022/10/05 12:16:18;;;;;;;5.30;3.30;;;;;;;;;;6246039;23;20040;-75
2022/10/05 12:18:46;;;;;;;4.80;2.70;;;;;;;;;;6246667;23;20086;-75
2022/10/05 12:21:35;;;;;;;3.92;2.78;;;;;;;;;;6246453;23;20023;-76
2022/10/05 12:24:22;;;;;;;5.85;4.10;;;;;;;;;;6246450;23;20043;-75
2022/10/05 12:27:02;;;;;;;5.70;3.00;;;;;;;;;;6246418;23;20012;-75
2022/10/05 12:29:31;;;;;;;4.45;2.60;;;;;;;;;;6246331;23;20464;-75
2022/10/05 12:32:04;;;;;;;4.80;3.22;;;;;;;;;;6246703;23;20012;-75
2022/10/05 12:34:41;;;;;;;7.38;4.68;;;;;;;;;;6246471;23;20039;-76
2022/10/05 12:37:27;;;;;;;7.65;3.45;;;;;;;;;;6246585;23;20020;-76
2022/10/05 12:40:02;;;;;;;7.03;2.88;;;;;;;;;;6246232;23;20023;-76
2022/10/05 12:42:34;;;;;;;3.42;2.53;;;;;;;;;;6246097;23;20090;-75
2022/10/05 12:45:13;;;;;;;4.63;2.25;;;;;;;;;;6246261;23;20500;-75
2022/10/05 12:47:41;;;;;;;3.05;2.10;;;;;;;;;;6246049;23;20016;-75
2022/10/05 12:50:27;;;;;;;5.25;2.40;;;;;;;;;;6246532;23;20024;-76
2022/10/05 12:52:54;;;;;;;2.75;2.20;;;;;;;;;;6219229;23;20020;-75
2022/10/05 12:55:24;;;;;;;3.22;2.05;;;;;;;;;;6246396;23;20020;-75
2022/10/05 12:58:01;;;;;;;7.95;4.28;;;;;;;;;;6245937;23;20023;-75
2022/10/05 13:00:31;;;;;;;3.65;2.08;;;;;;;;;;6246067;23;20073;-75
2022/10/05 13:03:01;;;;;;;6.22;3.38;;;;;;;;;;6245896;23;20431;-75
2022/10/05 13:05:28;;;;;;;6.30;3.90;;;;;;;;;;6245762;23;20095;-75
2022/10/05 13:08:17;;;;;;;3.13;2.20;;;;;;;;;;6245897;23;20016;-75
2022/10/05 13:10:50;;;;;;;6.90;2.00;;;;;;;;;;6245928;23;20020;-75
2022/10/05 13:13:17;;;;;;;2.58;1.77;;;;;;;;;;6246146;23;20016;-75
2022/10/05 13:15:55;;;;;;;5.03;2.83;;;;;;;;;;6246022;23;20110;-75
2022/10/05 13:18:29;;;;;;;1.75;1.65;;;;;;;;;;6246019;23;20020;-75
2022/10/05 13:21:08;;;;;;;2.90;1.85;;;;;;;;;;6246083;23;20083;-75
2022/10/05 13:23:55;;;;;;;4.05;1.90;;;;;;;;;;6246007;23;20016;-75
2022/10/05 13:26:27;;;;;;;2.20;1.77;;;;;;;;;;6245665;23;20020;-75
2022/10/05 13:28:56;;;;;;;2.72;2.00;;;;;;;;;;6245851;23;20020;-75
2022/10/05 13:31:26;;;;;;;5.18;2.30;;;;;;;;;;6245858;23;20047;-75
2022/10/05 13:33:57;;;;;;;2.88;2.33;;;;;;;;;;6246007;23;20016;-76
2022/10/05 13:36:43;;;;;;;6.38;4.55;;;;;;;;;;6245569;23;20439;-75
2022/10/05 13:39:29;;;;;;;5.15;2.40;;;;;;;;;;6245740;23;20023;-75
2022/10/05 13:42:02;;;;;;;7.57;4.30;;;;;;;;;;6245882;23;20020;-74
2022/10/05 13:44:38;;;;;;;3.90;2.60;;;;;;;;;;6245494;23;20013;-73
2022/10/05 13:47:11;;;;;;;6.40;2.30;;;;;;;;;;6217897;23;20026;-73
2022/10/05 13:49:43;;;;;;;4.30;3.05;;;;;;;;;;6243895;23;20449;-74
2022/10/05 13:52:18;;;;;;;7.57;3.83;;;;;;;;;;6245072;23;20024;-73
2022/10/05 13:54:50;;;;;;;3.83;2.65;;;;;;;;;;6245339;23;20379;-74
2022/10/05 13:57:24;;;;;;;2.28;2.05;;;;;;;;;;6245205;23;20012;-73
2022/10/05 13:59:53;;;;;;;3.97;2.13;;;;;;;;;;6245162;23;20050;-73
2022/10/05 14:02:28;;;;;;;3.35;1.83;;;;;;;;;;6245543;23;20027;-73
2022/10/05 14:05:00;;;;;;;6.13;4.00;;;;;;;;;;6245815;23;20020;-72
2022/10/05 14:07:30;;;;;;;6.70;3.03;;;;;;;;;;6243636;23;20016;-72
2022/10/05 14:09:58;;;;;;;2.63;1.77;;;;;;;;;;6244471;23;20026;-72
2022/10/05 14:12:27;;;;;;;2.53;1.88;;;;;;;;;;6245449;23;20019;-72
2022/10/05 14:14:55;;;;;;;8.25;3.10;;;;;;;;;;6245568;23;20027;-72
2022/10/05 14:17:26;;;;;;;4.07;2.42;;;;;;;;;;6245529;23;20016;-73
2022/10/05 14:20:00;;;;;;;5.40;2.40;;;;;;;;;;6218644;23;20442;-73
2022/10/05 14:22:28;;;;;;;3.05;1.63;;;;;;;;;;6245130;23;20024;-74
2022/10/05 14:25:02;;;;;;;7.13;3.90;;;;;;;;;;6244798;23;20016;-74
2022/10/05 14:27:35;;;;;;;5.47;2.70;;;;;;;;;;6245388;23;20019;-76
2022/10/05 14:30:23;;;;;;;11.50;6.20;;;;;;;;;;6244835;23;20358;-76
2022/10/05 14:32:55;;;;;;;5.18;3.20;;;;;;;;;;6245167;23;20026;-77
2022/10/05 14:35:24;;;;;;;8.20;5.68;;;;;;;;;;6245337;23;20016;-75
2022/10/05 14:37:52;;;;;;;4.32;2.90;;;;;;;;;;6244321;23;20044;-77
2022/10/05 14:40:28;;;;;;;4.60;2.97;;;;;;;;;;6244876;23;20020;-77
2022/10/05 14:42:56;;;;;;;7.35;3.53;;;;;;;;;;6245290;23;20012;-77
2022/10/05 14:45:25;;;;;;;3.30;2.60;;;;;;;;;;6245150;23;20020;-76
2022/10/05 14:47:52;;;;;;;4.57;2.90;;;;;;;;;;6245039;23;20012;-77
2022/10/05 14:50:25;;;;;;;15.05;10.45;;;;;;;;;;6218782;23;20439;-76
2022/10/05 14:53:10;;;;;;;9.63;5.65;;;;;;;;;;6244447;23;20100;-77
2022/10/05 14:55:45;;;;;;;5.90;2.88;;;;;;;;;;6244992;23;20016;-76
2022/10/05 14:58:24;;;;;;;6.53;3.70;;;;;;;;;;6244487;23;20013;-77
2022/10/05 15:01:13;;;;;;;4.88;2.90;;;;;;;;;;6245035;23;20053;-77
2022/10/05 15:03:46;;;;;;;6.88;4.07;;;;;;;;;;6244584;23;20016;-77
2022/10/05 15:06:17;;;;;;;10.88;4.20;;;;;;;;;;6244398;23;20042;-76
2022/10/05 15:08:46;;;;;;;6.40;3.65;;;;;;;;;;6243941;23;20043;-75
2022/10/05 15:11:17;;;;;;;8.98;3.90;;;;;;;;;;6243972;23;20430;-76
2022/10/05 15:13:47;;;;;;;5.25;2.70;;;;;;;;;;6243717;23;20020;-75
2022/10/05 15:16:19;;;;;;;7.63;3.53;;;;;;;;;;6244188;23;20083;-74
2022/10/05 15:18:59;;;;;;;5.13;3.28;;;;;;;;;;6217292;23;20043;-74
2022/10/05 15:21:36;;;;;;;21.17;13.27;;;;;;;;;;6246019;23;20016;-74
2022/10/05 15:24:08;;;;;;;10.60;6.90;;;;;;;;;;6246091;23;20020;-77
2022/10/05 15:26:49;;;;;;;11.35;5.60;;;;;;;;;;6246179;23;20088;-77
2022/10/05 15:29:24;;;;;;;7.63;3.42;;;;;;;;;;6246292;23;20461;-76
2022/10/05 15:31:52;;;;;;;5.95;3.10;;;;;;;;;;6246008;23;20012;-76
2022/10/05 15:34:41;;;;;;;17.17;12.45;;;;;;;;;;6219606;23;20012;-75